SBFZ/FOR METAR and TAF weather

Enter ICAO airport designator
Station Type Date Time Source
SBFZ METAR 2022/08/12 15:00 UTC NOAA

SBFZ 121500Z 10014KT 9999 BKN020 29/23 Q1016


Station Type Date Time Source
SBFZ Decoded METAR 2022/08/12 15:00 UTC NOAA

Fortaleza / pinto Martins , Brazil (SBFZ) 03-47S 038-32W 25M
Aug 12, 2022 - 11:00 AM EDT / 2022.08.12 1500 UTC
Wind: from the E (100 degrees) at 16 MPH (14 KT):0
Visibility: greater than 7 mile(s):0
Sky conditions: mostly cloudy
Temperature: 84 F (29 C)
Dew Point: 73 F (23 C)
Relative Humidity: 70%
Pressure (altimeter): 30.00 in. Hg (1016 hPa)
ob: SBFZ 121500Z 10014KT 9999 BKN020 29/23 Q1016
cycle: 15

Station Type Date Time Source
SBFZ TAF 2022/08/12 18:09 UTC NOAA

TAF SBFZ 121500Z 1218/1318 11010KT 9999 SCT025 TN24/1308Z TX30/1315Z
BECMG 1305/1307 15005KT SCT020
BECMG 1314/1316 11010KT SCT030
RMK PHD

Example: see airport list